createdAt,value
2016-02-07T00:00:38.778Z,92.61
2016-02-07T00:01:38.764Z,92.71
2016-02-07T00:02:38.768Z,92.33
2016-02-07T00:03:38.755Z,92.61
2016-02-07T00:04:38.742Z,92.33
2016-02-07T00:05:38.745Z,92.43
2016-02-07T00:06:38.748Z,92.52
2016-02-07T00:07:38.734Z,92.43
2016-02-07T00:08:38.739Z,92.52
2016-02-07T00:09:38.726Z,92.24
2016-02-07T00:10:38.728Z,92.33
2016-02-07T00:11:38.716Z,92.52
2016-02-07T00:12:38.702Z,92.43
2016-02-07T00:13:38.706Z,92.52
2016-02-07T00:14:38.709Z,92.24
2016-02-07T00:15:38.696Z,92.43
2016-02-07T00:16:38.546Z,92.61
2016-02-07T00:17:38.690Z,92.43
2016-02-07T00:18:38.692Z,92.43
2016-02-07T00:19:38.695Z,92.71
2016-02-07T00:20:38.682Z,92.61
2016-02-07T00:21:38.671Z,92.71
2016-02-07T00:22:38.658Z,92.33
2016-02-07T00:23:38.677Z,92.14
2016-02-07T00:24:38.647Z,92.14
2016-02-07T00:25:38.652Z,92.33
2016-02-07T00:26:38.641Z,92.24
2016-02-07T00:27:38.643Z,92.43
2016-02-07T00:28:38.630Z,92.52
2016-02-07T00:29:38.634Z,92.33
2016-02-07T00:30:38.656Z,92.33
2016-02-07T00:31:38.628Z,92.43
2016-02-07T00:32:38.631Z,92.43
2016-02-07T00:33:38.619Z,92.33
2016-02-07T00:34:38.623Z,92.05
2016-02-07T00:35:38.610Z,92.61
2016-02-07T00:36:38.597Z,92.61
2016-02-07T00:37:38.600Z,91.77
2016-02-07T00:38:38.602Z,92.61
2016-02-07T00:39:38.590Z,92.43
2016-02-07T00:40:38.595Z,91.77
2016-02-07T00:41:38.581Z,92.43
2016-02-07T00:42:38.569Z,92.43
2016-02-07T00:43:38.573Z,92.33
2016-02-07T00:44:38.575Z,92.33
2016-02-07T00:45:38.578Z,92.71
2016-02-07T00:46:38.566Z,92.43
2016-02-07T00:47:38.552Z,92.33
2016-02-07T00:48:38.539Z,92.52
2016-02-07T00:49:38.542Z,92.61
2016-02-07T00:50:38.544Z,92.61
2016-02-07T00:51:38.546Z,92.43
2016-02-07T00:52:38.535Z,92.33
2016-02-07T00:53:38.526Z,92.14
2016-02-07T00:54:38.513Z,92.43
2016-02-07T00:55:38.515Z,92.52
2016-02-07T00:56:38.534Z,92.33
2016-02-07T00:57:38.506Z,92.33
2016-02-07T00:58:38.492Z,93.09
2016-02-07T00:59:38.495Z,93.18
2016-02-07T01:00:38.514Z,92.43
2016-02-07T01:01:38.486Z,92.43
2016-02-07T01:02:38.489Z,92.24
2016-02-07T01:03:38.507Z,92.24
2016-02-07T01:04:38.479Z,92.24
2016-02-07T01:05:38.466Z,92.14
2016-02-07T01:06:38.501Z,92.33
2016-02-07T01:07:38.456Z,92.33
2016-02-07T01:08:38.463Z,92.43
2016-02-07T01:09:38.449Z,92.33
2016-02-07T01:10:38.452Z,92.05
2016-02-07T01:11:38.439Z,92.33
2016-02-07T01:12:38.442Z,92.24
2016-02-07T01:13:38.430Z,92.33
2016-02-07T01:14:38.432Z,92.43
2016-02-07T01:15:38.419Z,92.24
2016-02-07T01:16:38.423Z,92.24
2016-02-07T01:17:38.426Z,92.05
2016-02-07T01:18:38.413Z,92.43
2016-02-07T01:19:38.400Z,92.24
2016-02-07T01:20:38.403Z,92.33
2016-02-07T01:21:38.391Z,92.43
2016-02-07T01:22:38.409Z,92.33
2016-02-07T01:23:38.380Z,92.33
2016-02-07T01:24:38.383Z,92.24
2016-02-07T01:25:38.402Z,92.43
2016-02-07T01:26:38.373Z,92.52
2016-02-07T01:27:38.360Z,92.52
2016-02-07T01:28:38.362Z,92.52
2016-02-07T01:29:38.367Z,92.33
2016-02-07T01:30:38.354Z,92.43
2016-02-07T01:31:38.357Z,92.24
2016-02-07T01:32:38.343Z,92.43
2016-02-07T01:33:38.346Z,92.43
2016-02-07T01:34:38.348Z,92.61
2016-02-07T01:35:38.336Z,92.05
2016-02-07T01:36:38.323Z,92.33
2016-02-07T01:37:38.330Z,92.52
2016-02-07T01:38:38.332Z,92.61
2016-02-07T01:39:38.319Z,92.61
2016-02-07T01:40:38.306Z,92.24
2016-02-07T01:41:38.309Z,92.24
2016-02-07T01:42:38.296Z,92.52
2016-02-07T01:43:38.314Z,92.99
2016-02-07T01:44:38.285Z,93.09
2016-02-07T01:45:38.288Z,93.09
2016-02-07T01:46:38.276Z,92.99
2016-02-07T01:47:38.278Z,92.99
2016-02-07T01:48:38.281Z,92.99
2016-02-07T01:49:38.268Z,92.24
2016-02-07T01:50:38.256Z,92.43
2016-02-07T01:51:38.258Z,92.33
2016-02-07T01:52:38.261Z,92.24
2016-02-07T01:53:38.264Z,92.43
2016-02-07T01:54:38.252Z,92.24
2016-02-07T01:55:38.238Z,92.24
2016-02-07T01:56:38.243Z,92.24
2016-02-07T01:57:38.229Z,92.33
2016-02-07T01:58:38.218Z,92.33
2016-02-07T01:59:38.221Z,92.33
2016-02-07T02:00:38.239Z,92.33
2016-02-07T02:01:38.210Z,92.24
2016-02-07T02:02:38.229Z,92.19
2016-02-07T02:03:38.193Z,92.8
2016-02-07T02:04:38.182Z,92.24
2016-02-07T02:05:38.155Z,92.43
2016-02-07T02:06:38.142Z,92.24
2016-02-07T02:07:38.114Z,92.43
2016-02-07T02:08:38.107Z,92.52
2016-02-07T02:09:38.090Z,92.33
2016-02-07T02:10:38.087Z,92.61
2016-02-07T02:11:38.068Z,92.38
2016-02-07T02:12:38.065Z,92.1
2016-02-07T02:13:38.064Z,92.24
2016-02-07T02:14:38.066Z,92.43
2016-02-07T02:15:38.035Z,92.14
2016-02-07T02:16:38.036Z,92.43
2016-02-07T02:17:38.037Z,92.43
2016-02-07T02:18:38.038Z,92.24
2016-02-07T02:19:38.024Z,92.99
2016-02-07T02:20:38.010Z,92.99
2016-02-07T02:21:37.999Z,92.71
2016-02-07T02:22:38.001Z,92.71
2016-02-07T02:23:38.004Z,92.61
2016-02-07T02:24:37.993Z,92.71
2016-02-07T02:25:37.979Z,92.8
2016-02-07T02:26:38.046Z,92.8
2016-02-07T02:27:37.818Z,92.71
2016-02-07T02:28:37.978Z,92.8
2016-02-07T02:29:37.971Z,92.99
2016-02-07T02:30:38.160Z,92.99
2016-02-07T02:31:37.945Z,93.18
2016-02-07T02:32:37.947Z,93.09
2016-02-07T02:33:37.951Z,93.28
2016-02-07T02:34:37.937Z,93.28
2016-02-07T02:35:37.924Z,92.99
2016-02-07T02:36:37.926Z,92.99
2016-02-07T02:37:37.914Z,92.99
2016-02-07T02:38:37.917Z,93.18
2016-02-07T02:39:37.920Z,93.37
2016-02-07T02:40:37.906Z,93.66
2016-02-07T02:41:37.909Z,93.94
2016-02-07T02:42:37.895Z,93.56
2016-02-07T02:43:37.889Z,93.75
2016-02-07T02:44:37.906Z,93.47
2016-02-07T02:45:37.879Z,93.66
2016-02-07T02:46:37.881Z,93.47
2016-02-07T02:47:37.884Z,93.66
2016-02-07T02:48:37.887Z,93.75
2016-02-07T02:49:37.874Z,93.75
2016-02-07T02:50:37.861Z,93.66
2016-02-07T02:51:37.865Z,93.66
2016-02-07T02:52:37.864Z,93.56
2016-02-07T02:53:37.851Z,93.47
2016-02-07T02:54:37.853Z,93.66
2016-02-07T02:55:37.856Z,93.66
2016-02-07T02:56:37.843Z,93.66
2016-02-07T02:57:37.813Z,93.37
2016-02-07T02:58:37.819Z,93.47
2016-02-07T02:59:37.821Z,93.47
2016-02-07T03:00:37.824Z,93.47
2016-02-07T03:01:37.826Z,93.94
2016-02-07T03:02:37.815Z,93.75
2016-02-07T03:03:37.801Z,93.75
2016-02-07T03:04:37.810Z,93.84
2016-02-07T03:05:37.796Z,93.75
2016-02-07T03:06:37.799Z,93.75
2016-02-07T03:07:37.770Z,93.56
2016-02-07T03:08:37.774Z,93.75
2016-02-07T03:09:37.776Z,93.84
2016-02-07T03:10:37.763Z,93.66
2016-02-07T03:11:37.765Z,93.47
2016-02-07T03:12:37.756Z,93.56
2016-02-07T03:13:37.759Z,93.66
2016-02-07T03:14:37.746Z,93.56
2016-02-07T03:15:37.733Z,93.56
2016-02-07T03:16:37.736Z,93.84
2016-02-07T03:17:37.738Z,93.66
2016-02-07T03:18:37.726Z,93.75
2016-02-07T03:19:37.729Z,93.66
2016-02-07T03:20:37.716Z,93.84
2016-02-07T03:21:37.721Z,93.75
2016-02-07T03:22:37.709Z,93.75
2016-02-07T03:23:37.696Z,93.84
2016-02-07T03:24:37.698Z,93.47
2016-02-07T03:25:37.701Z,93.66
2016-02-07T03:26:37.688Z,93.47
2016-02-07T03:27:37.675Z,93.28
2016-02-07T03:28:37.678Z,93.56
2016-02-07T03:29:37.681Z,92.99
2016-02-07T03:30:37.683Z,93.09
2016-02-07T03:31:37.670Z,93.09
2016-02-07T03:32:37.657Z,93.09
2016-02-07T03:33:37.663Z,93.09
2016-02-07T03:34:37.650Z,93.09
2016-02-07T03:35:37.653Z,93.09
2016-02-07T03:36:37.639Z,93.18
2016-02-07T03:37:37.643Z,93.09
2016-02-07T03:38:37.629Z,93.09
2016-02-07T03:39:37.648Z,93.18
2016-02-07T03:40:37.620Z,93.09
2016-02-07T03:41:37.623Z,93.18
2016-02-07T03:42:37.626Z,93.56
2016-02-07T03:43:37.613Z,93.37
2016-02-07T03:44:37.600Z,92.99
2016-02-07T03:45:37.603Z,92.99
2016-02-07T03:46:37.590Z,93.18
2016-02-07T03:47:37.594Z,93.66
2016-02-07T03:48:37.596Z,93.66
2016-02-07T03:49:37.585Z,92.99
2016-02-07T03:50:37.572Z,93.18
2016-02-07T03:51:37.575Z,93.56
2016-02-07T03:52:37.578Z,93.66
2016-02-07T03:53:37.564Z,93.47
2016-02-07T03:54:37.567Z,92.99
2016-02-07T03:55:37.554Z,93.18
2016-02-07T03:56:37.541Z,93.66
2016-02-07T03:57:37.544Z,93.37
2016-02-07T03:58:37.531Z,93.37
2016-02-07T03:59:37.534Z,93.47
2016-02-07T04:00:37.521Z,93.47
2016-02-07T04:01:37.527Z,93.37
2016-02-07T04:02:37.529Z,93.75
2016-02-07T04:03:37.516Z,93.75
2016-02-07T04:04:37.534Z,93.66
2016-02-07T04:05:37.505Z,93.66
2016-02-07T04:06:37.509Z,93.75
2016-02-07T04:07:37.497Z,93.37
2016-02-07T04:08:37.499Z,93.37
2016-02-07T04:09:37.485Z,93.47
2016-02-07T04:10:37.488Z,93.66
2016-02-07T04:11:37.491Z,93.84
2016-02-07T04:12:37.478Z,93.56
2016-02-07T04:13:37.465Z,93.84
2016-02-07T04:14:37.468Z,93.84
2016-02-07T04:15:37.454Z,93.84
2016-02-07T04:16:37.458Z,93.84
2016-02-07T04:17:37.443Z,94.03
2016-02-07T04:18:37.446Z,94.03
2016-02-07T04:19:37.434Z,94.32
2016-02-07T04:20:37.437Z,94.41
2016-02-07T04:21:37.424Z,94.03
2016-02-07T04:22:37.427Z,94.03
2016-02-07T04:23:37.429Z,94.41
2016-02-07T04:24:37.417Z,94.6
2016-02-07T04:25:37.419Z,93.94
2016-02-07T04:26:37.423Z,94.03
2016-02-07T04:27:37.409Z,93.94
2016-02-07T04:28:37.412Z,94.13
2016-02-07T04:29:37.383Z,94.03
2016-02-07T04:30:37.386Z,94.6
2016-02-07T04:31:37.373Z,94.79
2016-02-07T04:32:37.375Z,94.6
2016-02-07T04:33:37.362Z,94.6
2016-02-07T04:34:37.365Z,94.7
2016-02-07T04:35:37.367Z,94.41
2016-02-07T04:36:37.361Z,94.46
2016-02-07T04:37:37.363Z,94.37
2016-02-07T04:38:37.349Z,94.65
2016-02-07T04:39:37.336Z,94.46
2016-02-07T04:40:37.339Z,94.46
2016-02-07T04:41:37.348Z,94.56
2016-02-07T04:42:37.336Z,94.56
2016-02-07T04:43:37.322Z,94.46
2016-02-07T04:44:37.325Z,93.61
2016-02-07T04:45:37.312Z,94.27
2016-02-07T04:46:37.305Z,94.37
2016-02-07T04:47:37.323Z,94.46
2016-02-07T04:48:37.310Z,94.46
2016-02-07T04:49:37.297Z,94.46
2016-02-07T04:50:37.284Z,94.46
2016-02-07T04:51:37.287Z,94.74
2016-02-07T04:52:37.289Z,94.18
2016-02-07T04:53:37.277Z,94.65
2016-02-07T04:54:37.263Z,93.99
2016-02-07T04:55:37.266Z,94.08
2016-02-07T04:56:37.269Z,94.65
2016-02-07T04:57:37.259Z,94.18
2016-02-07T04:58:37.246Z,94.56
2016-02-07T04:59:37.249Z,94.46
2016-02-07T05:00:37.267Z,94.46
2016-02-07T05:01:37.238Z,94.27
2016-02-07T05:02:37.227Z,93.7
2016-02-07T05:03:37.230Z,94.27
2016-02-07T05:04:37.232Z,94.46
2016-02-07T05:05:37.219Z,94.27
2016-02-07T05:06:37.206Z,93.61
2016-02-07T05:07:37.209Z,94.46
2016-02-07T05:08:37.212Z,94.27
2016-02-07T05:09:37.200Z,94.27
2016-02-07T05:10:37.204Z,94.37
2016-02-07T05:11:37.191Z,94.37
2016-02-07T05:12:37.193Z,93.7
2016-02-07T05:13:37.195Z,93.61
2016-02-07T05:14:37.182Z,93.99
2016-02-07T05:15:37.188Z,94.46
2016-02-07T05:16:37.199Z,93.89
2016-02-07T05:17:37.154Z,94.18
2016-02-07T05:18:37.158Z,93.89
2016-02-07T05:19:37.161Z,93.89
2016-02-07T05:20:37.149Z,93.7
2016-02-07T05:21:37.151Z,93.89
2016-02-07T05:22:37.154Z,94.27
2016-02-07T05:23:37.141Z,94.27
2016-02-07T05:24:37.129Z,94.18
2016-02-07T05:25:37.131Z,94.27
2016-02-07T05:26:37.134Z,94.46
2016-02-07T05:27:37.121Z,94.18
2016-02-07T05:28:37.124Z,94.46
2016-02-07T05:29:37.110Z,94.46
2016-02-07T05:30:37.098Z,94.51
2016-02-07T05:31:37.116Z,94.46
2016-02-07T05:32:37.103Z,93.89
2016-02-07T05:33:37.122Z,94.46
2016-02-07T05:34:37.077Z,93.99
2016-02-07T05:35:37.080Z,93.61
2016-02-07T05:36:37.069Z,94.46
2016-02-07T05:37:37.071Z,94.46
2016-02-07T05:38:37.058Z,93.99
2016-02-07T05:39:37.060Z,94.56
2016-02-07T05:40:37.063Z,94.46
2016-02-07T05:41:37.055Z,94.56
2016-02-07T05:42:37.042Z,93.7
2016-02-07T05:43:37.045Z,94.37
2016-02-07T05:44:37.050Z,94.56
2016-02-07T05:45:37.067Z,94.46
2016-02-07T05:46:37.039Z,94.37
2016-02-07T05:47:37.026Z,94.37
2016-02-07T05:48:36.856Z,94.65
2016-02-07T05:49:37.019Z,94.37
2016-02-07T05:50:37.022Z,94.27
2016-02-07T05:51:37.008Z,94.37
2016-02-07T05:52:36.994Z,94.27
2016-02-07T05:53:36.998Z,94.74
2016-02-07T05:54:37.000Z,94.74
2016-02-07T05:55:36.988Z,94.65
2016-02-07T05:56:36.990Z,94.65
2016-02-07T05:57:36.978Z,94.56
2016-02-07T05:58:36.981Z,94.65
2016-02-07T05:59:36.968Z,94.27
2016-02-07T06:00:36.955Z,94.65
2016-02-07T06:01:36.958Z,94.74
2016-02-07T06:02:36.945Z,94.74
2016-02-07T06:03:36.965Z,94.27
2016-02-07T06:04:36.967Z,94.37
2016-02-07T06:05:36.939Z,94.37
2016-02-07T06:06:36.930Z,94.46
2016-02-07T06:07:36.933Z,94.46
2016-02-07T06:08:36.951Z,94.56
2016-02-07T06:09:36.923Z,94.56
2016-02-07T06:10:36.913Z,94.46
2016-02-07T06:11:36.916Z,94.37
2016-02-07T06:12:36.918Z,94.27
2016-02-07T06:13:36.906Z,94.56
2016-02-07T06:14:36.894Z,93.99
2016-02-07T06:15:36.897Z,93.99
2016-02-07T06:16:36.899Z,94.08
2016-02-07T06:17:36.887Z,94.08
2016-02-07T06:18:36.873Z,93.99
2016-02-07T06:19:36.876Z,93.7
2016-02-07T06:20:36.879Z,93.61
2016-02-07T06:21:36.866Z,94.27
2016-02-07T06:22:36.868Z,94.08
2016-02-07T06:23:36.871Z,94.37
2016-02-07T06:24:36.843Z,94.27
2016-02-07T06:25:36.845Z,94.08
2016-02-07T06:26:36.848Z,94.37
2016-02-07T06:27:36.851Z,94.08
2016-02-07T06:28:36.823Z,94.27
2016-02-07T06:29:36.825Z,94.37
2016-02-07T06:30:36.828Z,94.37
2016-02-07T06:31:36.831Z,94.08
2016-02-07T06:32:36.818Z,94.18
2016-02-07T06:33:36.837Z,94.08
2016-02-07T06:34:36.809Z,94.18
2016-02-07T06:35:36.795Z,93.99
2016-02-07T06:36:36.800Z,94.08
2016-02-07T06:37:36.802Z,93.99
2016-02-07T06:38:36.789Z,93.99
2016-02-07T06:39:36.777Z,93.99
2016-02-07T06:40:36.780Z,93.99
2016-02-07T06:41:36.766Z,94.08
2016-02-07T06:42:36.769Z,94.08
2016-02-07T06:43:36.757Z,94.08
2016-02-07T06:44:36.761Z,93.99
2016-02-07T06:45:36.763Z,94.08
2016-02-07T06:46:36.751Z,94.18
2016-02-07T06:47:36.753Z,94.56
2016-02-07T06:48:36.740Z,94.08
2016-02-07T06:49:36.727Z,94.08
2016-02-07T06:50:36.731Z,94.18
2016-02-07T06:51:36.733Z,94.08
2016-02-07T06:52:36.737Z,94.08
2016-02-07T06:53:36.725Z,93.99
2016-02-07T06:54:36.711Z,93.99
2016-02-07T06:55:36.714Z,94.65
2016-02-07T06:56:36.702Z,94.08
2016-02-07T06:57:36.705Z,94.37
2016-02-07T06:58:36.708Z,94.37
2016-02-07T06:59:36.711Z,94.27
2016-02-07T07:00:36.681Z,94.27
2016-02-07T07:01:36.684Z,94.65
2016-02-07T07:02:36.672Z,94.08
2016-02-07T07:03:36.675Z,94.74
2016-02-07T07:04:36.666Z,94.74
2016-02-07T07:05:36.654Z,94.65
2016-02-07T07:06:36.657Z,94.74
2016-02-07T07:07:36.660Z,94.08
2016-02-07T07:08:36.662Z,94.74
2016-02-07T07:09:36.650Z,94.65
2016-02-07T07:10:36.637Z,94.27
2016-02-07T07:11:36.657Z,94.08
2016-02-07T07:12:36.627Z,94.08
2016-02-07T07:13:36.630Z,94.65
2016-02-07T07:14:36.632Z,94.84
2016-02-07T07:15:36.626Z,94.84
2016-02-07T07:16:36.612Z,94.27
2016-02-07T07:17:36.615Z,94.08
2016-02-07T07:18:36.605Z,94.08
2016-02-07T07:19:36.608Z,94.08
2016-02-07T07:20:36.595Z,94.65
2016-02-07T07:21:36.582Z,94.56
2016-02-07T07:22:36.600Z,94.74
2016-02-07T07:23:36.587Z,94.74
2016-02-07T07:24:36.578Z,94.27
2016-02-07T07:25:36.581Z,94.51
2016-02-07T07:26:36.569Z,94.42
2016-02-07T07:27:36.557Z,94.51
2016-02-07T07:28:36.558Z,94.6
2016-02-07T07:29:36.562Z,94.51
2016-02-07T07:30:36.548Z,94.51
2016-02-07T07:31:36.536Z,94.51
2016-02-07T07:32:36.543Z,94.51
2016-02-07T07:33:36.530Z,94.51
2016-02-07T07:34:36.563Z,94.51
2016-02-07T07:35:36.534Z,93.75
2016-02-07T07:36:36.522Z,94.32
2016-02-07T07:37:36.509Z,94.32
2016-02-07T07:38:36.512Z,94.6
2016-02-07T07:39:36.515Z,94.51
2016-02-07T07:40:36.502Z,94.23
2016-02-07T07:41:36.490Z,94.51
2016-02-07T07:42:36.493Z,94.51
2016-02-07T07:43:36.495Z,94.6
2016-02-07T07:44:36.482Z,94.6
2016-02-07T07:45:36.490Z,94.42
2016-02-07T07:46:36.477Z,94.51
2016-02-07T07:47:36.471Z,94.6
2016-02-07T07:48:36.474Z,94.42
2016-02-07T07:49:36.477Z,94.51
2016-02-07T07:50:36.464Z,94.42
2016-02-07T07:51:36.451Z,94.6
2016-02-07T07:52:36.454Z,94.51
2016-02-07T07:53:36.457Z,94.51
2016-02-07T07:54:36.444Z,94.7
2016-02-07T07:55:36.431Z,94.89
2016-02-07T07:56:36.435Z,94.32
2016-02-07T07:57:36.437Z,94.7
2016-02-07T07:58:36.423Z,94.6
2016-02-07T07:59:36.426Z,94.42
2016-02-07T08:00:36.414Z,94.89
2016-02-07T08:01:36.418Z,94.7
2016-02-07T08:02:36.405Z,94.7
2016-02-07T08:03:36.407Z,94.04
2016-02-07T08:04:36.410Z,94.79
2016-02-07T08:05:36.396Z,94.7
2016-02-07T08:06:36.386Z,94.74
2016-02-07T08:07:36.388Z,94.7
2016-02-07T08:08:36.390Z,94.08
2016-02-07T08:09:36.377Z,94.08
2016-02-07T08:10:36.363Z,94.27
2016-02-07T08:11:36.367Z,94.08
2016-02-07T08:12:36.370Z,94.08
2016-02-07T08:13:36.357Z,94.37
2016-02-07T08:14:36.364Z,93.99
2016-02-07T08:15:36.353Z,94.08
2016-02-07T08:16:36.355Z,94.37
2016-02-07T08:17:36.342Z,93.89
2016-02-07T08:18:36.344Z,93.89
2016-02-07T08:19:36.334Z,93.89
2016-02-07T08:20:36.337Z,94.18
2016-02-07T08:21:36.324Z,94.37
2016-02-07T08:22:36.310Z,93.99
2016-02-07T08:23:36.313Z,93.8
2016-02-07T08:24:36.315Z,93.99
2016-02-07T08:25:36.304Z,93.99
2016-02-07T08:26:36.306Z,93.99
2016-02-07T08:27:36.296Z,93.99
2016-02-07T08:28:36.298Z,93.99
2016-02-07T08:29:36.301Z,93.8
2016-02-07T08:30:36.288Z,93.7
2016-02-07T08:31:36.292Z,93.89
2016-02-07T08:32:36.279Z,93.7
2016-02-07T08:33:36.282Z,93.7
2016-02-07T08:34:36.284Z,93.61
2016-02-07T08:35:36.272Z,93.51
2016-02-07T08:36:36.260Z,94.18
2016-02-07T08:37:36.263Z,94.04
2016-02-07T08:38:36.280Z,93.56
2016-02-07T08:39:36.252Z,93.84
2016-02-07T08:40:36.241Z,93.75
2016-02-07T08:41:36.245Z,94.13
2016-02-07T08:42:36.263Z,93.56
2016-02-07T08:43:36.234Z,93.56
2016-02-07T08:44:36.237Z,93.56
2016-02-07T08:45:36.244Z,93.94
2016-02-07T08:46:36.235Z,93.75
2016-02-07T08:47:36.222Z,93.65
2016-02-07T08:48:36.209Z,93.65
2016-02-07T08:49:36.212Z,93.84
2016-02-07T08:50:36.199Z,93.84
2016-02-07T08:51:36.217Z,94.04
2016-02-07T08:52:36.204Z,94.04
2016-02-07T08:53:36.192Z,93.84
2016-02-07T08:54:36.179Z,93.84
2016-02-07T08:55:36.182Z,93.94
2016-02-07T08:56:36.189Z,93.46
2016-02-07T08:57:36.175Z,94.13
2016-02-07T08:58:36.178Z,93.94
2016-02-07T08:59:36.164Z,93.65
2016-02-07T09:00:36.167Z,94.13
2016-02-07T09:01:36.153Z,93.94
2016-02-07T09:02:36.171Z,93.75
2016-02-07T09:03:36.143Z,94.04
2016-02-07T09:04:36.162Z,93.94
2016-02-07T09:05:36.148Z,93.94
2016-02-07T09:06:36.136Z,93.75
2016-02-07T09:07:36.138Z,93.89
2016-02-07T09:08:36.125Z,93.99
2016-02-07T09:09:36.127Z,93.89
2016-02-07T09:10:36.115Z,93.99
2016-02-07T09:11:36.117Z,93.89
2016-02-07T09:12:36.105Z,93.42
2016-02-07T09:13:36.107Z,93.23
2016-02-07T09:14:36.097Z,93.42
2016-02-07T09:15:36.100Z,93.23
2016-02-07T09:16:36.103Z,93.46
2016-02-07T09:17:36.357Z,93.27
2016-02-07T09:18:36.094Z,92.99
2016-02-07T09:19:36.081Z,93.27
2016-02-07T09:20:36.090Z,93.27
2016-02-07T09:21:36.076Z,92.9
2016-02-07T09:22:36.065Z,93.18
2016-02-07T09:23:36.067Z,92.71
2016-02-07T09:24:36.070Z,92.33
2016-02-07T09:25:36.073Z,92.52
2016-02-07T09:26:36.061Z,92.61
2016-02-07T09:27:36.051Z,92.66
2016-02-07T09:28:36.054Z,92.76
2016-02-07T09:29:36.057Z,92.38
2016-02-07T09:30:36.043Z,92.28
2016-02-07T09:31:36.031Z,92.28
2016-02-07T09:32:36.034Z,92.28
2016-02-07T09:33:36.040Z,92.28
2016-02-07T09:34:36.043Z,92.28
2016-02-07T09:35:36.018Z,92.38
2016-02-07T09:36:36.021Z,92.09
2016-02-07T09:37:36.023Z,92.28
2016-02-07T09:38:36.010Z,91.52
2016-02-07T09:39:36.013Z,91.75
2016-02-07T09:40:36.001Z,91.94
2016-02-07T09:41:35.987Z,92.14
2016-02-07T09:42:35.989Z,91.56
2016-02-07T09:43:35.993Z,91.38
2016-02-07T09:44:36.152Z,90.9
2016-02-07T09:45:35.984Z,91.09
2016-02-07T09:46:35.986Z,91.52
2016-02-07T09:47:35.973Z,91.42
2016-02-07T09:48:35.978Z,91.52
2016-02-07T09:49:35.966Z,90.95
2016-02-07T09:50:35.968Z,90.66
2016-02-07T09:51:35.956Z,90.57
2016-02-07T09:52:35.958Z,90.14
2016-02-07T09:53:35.961Z,89.76
2016-02-07T09:54:35.947Z,89.76
2016-02-07T09:55:35.950Z,89.19
2016-02-07T09:56:35.953Z,89
2016-02-07T09:57:35.941Z,88.81
2016-02-07T09:58:35.944Z,88.9
2016-02-07T09:59:35.947Z,88.34
2016-02-07T10:00:35.934Z,88.57
2016-02-07T10:01:35.920Z,88.19
2016-02-07T10:02:35.925Z,88.76
2016-02-07T10:03:35.912Z,87.81
2016-02-07T10:04:35.931Z,87.52
2016-02-07T10:05:35.903Z,87.34
2016-02-07T10:06:35.905Z,87.43
2016-02-07T10:07:35.923Z,86.76
2016-02-07T10:08:35.894Z,87.34
2016-02-07T10:09:35.897Z,86.95
2016-02-07T10:10:35.901Z,86.47
2016-02-07T10:11:35.888Z,86.1
2016-02-07T10:12:35.906Z,86.29
2016-02-07T10:13:35.877Z,86.05
2016-02-07T10:14:35.881Z,85.68
2016-02-07T10:15:35.867Z,85.96
2016-02-07T10:16:35.870Z,85.58
2016-02-07T10:17:35.872Z,85.91
2016-02-07T10:18:35.862Z,85.91
2016-02-07T10:19:35.872Z,86.11
2016-02-07T10:20:35.876Z,86.3
2016-02-07T10:21:35.910Z,86.3
2016-02-07T10:22:35.865Z,86.68
2016-02-07T10:23:35.840Z,86.68
2016-02-07T10:24:35.843Z,87.05
2016-02-07T10:25:35.846Z,87.05
2016-02-07T10:26:35.833Z,86.87
2016-02-07T10:27:35.835Z,86.68
2016-02-07T10:28:35.839Z,86.49
2016-02-07T10:29:35.826Z,86.87
2016-02-07T10:30:35.828Z,86.82
2016-02-07T10:31:35.832Z,86.15
2016-02-07T10:32:35.820Z,86.34
2016-02-07T10:33:35.806Z,85.68
2016-02-07T10:34:35.826Z,85.68
2016-02-07T10:35:35.812Z,85.58
2016-02-07T10:36:35.815Z,85.86
2016-02-07T10:37:35.802Z,85.58
2016-02-07T10:38:35.806Z,85.3
2016-02-07T10:39:35.797Z,85.3
2016-02-07T10:40:35.800Z,84.53
2016-02-07T10:41:35.802Z,84.72
2016-02-07T10:42:35.788Z,84.44
2016-02-07T10:43:35.792Z,84.06
2016-02-07T10:44:35.779Z,83.97
2016-02-07T10:45:35.782Z,82.73
2016-02-07T10:46:35.785Z,82.54
2016-02-07T10:47:35.772Z,82.45
2016-02-07T10:48:35.775Z,82.45
2016-02-07T10:49:35.793Z,80.35
2016-02-07T10:50:35.767Z,80.16
2016-02-07T10:51:35.754Z,79.79
2016-02-07T10:52:35.760Z,78.27
2016-02-07T10:53:35.762Z,77.79
2016-02-07T10:54:35.750Z,77.98
2016-02-07T10:55:35.768Z,77.31
2016-02-07T10:56:35.755Z,77.31
2016-02-07T10:57:35.743Z,76.46
2016-02-07T10:58:35.745Z,76.46
2016-02-07T10:59:35.733Z,76.18
2016-02-07T11:00:35.751Z,75.79
2016-02-07T11:01:35.738Z,75.42
2016-02-07T11:02:35.740Z,74.75
2016-02-07T11:03:35.728Z,75.13
2016-02-07T11:04:35.731Z,75.13
2016-02-07T11:05:35.735Z,74.66
2016-02-07T11:06:35.721Z,74.56
2016-02-07T11:07:35.724Z,74.56
2016-02-07T11:08:35.711Z,74.08
2016-02-07T11:09:35.704Z,73.9
2016-02-07T11:10:35.679Z,73.8
2016-02-07T11:11:35.685Z,73.71
2016-02-07T11:12:35.658Z,73.61
2016-02-07T11:13:35.633Z,73.33
2016-02-07T11:14:35.631Z,73.14
2016-02-07T11:15:35.629Z,73.33
2016-02-07T11:16:35.612Z,72.75
2016-02-07T11:17:35.610Z,72.47
2016-02-07T11:18:35.595Z,72.19
2016-02-07T11:19:35.596Z,72.09
2016-02-07T11:20:35.600Z,72.28
2016-02-07T11:21:35.586Z,72.47
2016-02-07T11:22:35.587Z,72.22
2016-02-07T11:23:35.574Z,71.84
2016-02-07T11:24:35.590Z,71.84
2016-02-07T11:25:35.577Z,71.56
2016-02-07T11:26:35.564Z,71.66
2016-02-07T11:27:35.566Z,71.37
2016-02-07T11:28:35.567Z,70.99
2016-02-07T11:29:35.570Z,70.42
2016-02-07T11:30:35.573Z,70.7
2016-02-07T11:31:35.559Z,71.08
2016-02-07T11:32:35.546Z,70.99
2016-02-07T11:33:35.548Z,70.89
2016-02-07T11:34:35.536Z,70.89
2016-02-07T11:35:35.539Z,71.08
2016-02-07T11:36:35.541Z,71.08
2016-02-07T11:37:35.528Z,71.37
2016-02-07T11:38:35.530Z,71.08
2016-02-07T11:39:35.535Z,71.18
2016-02-07T11:40:35.538Z,71.27
2016-02-07T11:41:35.525Z,71.08
2016-02-07T11:42:35.528Z,70.89
2016-02-07T11:43:35.512Z,71.08
2016-02-07T11:44:35.515Z,71.08
2016-02-07T11:45:35.517Z,71.04
2016-02-07T11:46:35.506Z,71.23
2016-02-07T11:47:35.523Z,71.23
2016-02-07T11:48:35.511Z,71.52
2016-02-07T11:49:35.513Z,71.43
2016-02-07T11:50:35.500Z,71.71
2016-02-07T11:51:35.504Z,71.52
2016-02-07T11:52:35.490Z,71.33
2016-02-07T11:53:35.494Z,72.03
2016-02-07T11:54:35.497Z,71.81
2016-02-07T11:55:35.485Z,72.13
2016-02-07T11:56:35.487Z,72.13
2016-02-07T11:57:35.490Z,72.03
2016-02-07T11:58:35.492Z,72.13
2016-02-07T11:59:35.479Z,71.84
2016-02-07T12:00:35.483Z,71.56
2016-02-07T12:01:35.470Z,71.94
2016-02-07T12:02:35.488Z,72
2016-02-07T12:03:35.460Z,72.13
2016-02-07T12:04:35.462Z,72.13
2016-02-07T12:05:35.466Z,71.75
2016-02-07T12:06:35.457Z,71.18
2016-02-07T12:07:35.460Z,70.89
2016-02-07T12:08:35.462Z,70.7
2016-02-07T12:09:35.450Z,70.79
2016-02-07T12:10:35.452Z,70.23
2016-02-07T12:11:35.454Z,70.23
2016-02-07T12:12:35.442Z,70.32
2016-02-07T12:13:35.445Z,70.32
2016-02-07T12:14:35.433Z,70.32
2016-02-07T12:15:35.436Z,70.04
2016-02-07T12:16:35.438Z,69.37
2016-02-07T12:17:35.441Z,69.56
2016-02-07T12:18:35.427Z,68.99
2016-02-07T12:19:35.416Z,68.52
2016-02-07T12:20:35.418Z,68.33
2016-02-07T12:21:35.420Z,68.23
2016-02-07T12:22:35.423Z,67.85
2016-02-07T12:23:35.422Z,67.85
2016-02-07T12:24:35.427Z,67.5
2016-02-07T12:25:35.413Z,67.13
2016-02-07T12:26:35.416Z,67.13
2016-02-07T12:27:35.405Z,66.84
2016-02-07T12:28:35.407Z,66.46
2016-02-07T12:29:35.410Z,66.74
2016-02-07T12:30:35.397Z,66.55
2016-02-07T12:31:35.399Z,66.27
2016-02-07T12:32:35.403Z,65.89
2016-02-07T12:33:35.390Z,66.08
2016-02-07T12:34:35.393Z,65.83
2016-02-07T12:35:35.384Z,65.51
2016-02-07T12:36:35.386Z,65.13
2016-02-07T12:37:35.372Z,64.4
2016-02-07T12:38:35.392Z,64.78
2016-02-07T12:39:35.378Z,64.4
2016-02-07T12:40:35.366Z,64.02
2016-02-07T12:41:35.384Z,63.92
2016-02-07T12:42:35.371Z,63.76
2016-02-07T12:43:35.374Z,63.57
2016-02-07T12:44:35.361Z,63.39
2016-02-07T12:45:35.364Z,62.34
2016-02-07T12:46:35.367Z,62.91
2016-02-07T12:47:35.370Z,62.53
2016-02-07T12:48:35.357Z,62.43
2016-02-07T12:49:35.360Z,62.53
2016-02-07T12:50:35.362Z,62.62
2016-02-07T12:51:35.350Z,62.53
2016-02-07T12:52:35.352Z,62.43
2016-02-07T12:53:35.357Z,62.24
2016-02-07T12:54:35.346Z,62.62